Aviation Digital Data Service (ADDS)

Output produced by METARs form (1546 UTC 23 October 2014)
found at http://aviationweather.gov/adds/metars/
 
KATL 231545Z 2316/2418 30005KT P6SM FEW250 
     FM240100 32003KT P6SM BKN200 
     FM241600 30006KT P6SM SKC